Muscat Silver — V7NQ7 — position and weather

sailwx.info

Track history (hours):
 
Tides and Currents Weather Stations Pressure Air Temp Water Temp Dewpoint Dewpoint Depression Visibility Wind Speed Wind Dir Waves Ship Positions

Muscat Silver

Last reported at 2017-Nov-17 00:19 UTC. Time now 2017-Nov-20 06:01 UTC.
Position N 01°14' E 104°04'.

Length 183 m; draft 12.1 m.

Type: Tanker. MMSI: 538006488.

Date/timePositionNaut miles runAvg speedWind from/ knotsBaromVisibWave heightAir tempDewpointWater temp
2017-Nov-17 00:19N 01°14' E 104°04'512.1
2017-Nov-16 23:57N 01°14' E 103°59'511.4
2017-Nov-16 23:30N 01°12' E 103°55'5 9.3
2017-Nov-16 23:00N 01°11' E 103°50'2 3.3
2017-Nov-16 22:30N 01°13' E 103°49'0 0.8
2017-Nov-16 22:00N 01°13' E 103°49'0 0.0
2017-Nov-16 21:30N 01°13' E 103°49'1 1.5
2017-Nov-16 21:00N 01°13' E 103°48'4 7.7
2017-Nov-16 20:30N 01°15' E 103°45'4 7.3
2017-Nov-16 20:00N 01°16' E 103°41'0 0.6
2017-Nov-16 19:26N 01°16' E 103°41'0 0.0
2017-Nov-16 18:56N 01°16' E 103°41'0 0.0
2017-Nov-16 16:56N 01°16' E 103°41'0 0.0
2017-Nov-16 16:05N 01°16' E 103°41'0 0.0
2017-Nov-16 15:44N 01°16' E 103°41'0 0.0
2017-Nov-16 15:23N 01°16' E 103°41'0 0.0
2017-Nov-16 14:59N 01°16' E 103°41'0 0.0
2017-Nov-16 14:26N 01°16' E 103°41'0 0.0
2017-Nov-16 13:59N 01°16' E 103°41'0 0.0
2017-Nov-16 13:29N 01°16' E 103°41'0 0.0
2017-Nov-16 12:56N 01°16' E 103°41'0 0.0
2017-Nov-16 11:44N 01°16' E 103°41'0 0.0
2017-Nov-16 10:56N 01°16' E 103°41'0 0.0
2017-Nov-16 10:26N 01°16' E 103°41'0 0.0
2017-Nov-16 09:56N 01°16' E 103°41'0 0.0
2017-Nov-16 09:20N 01°16' E 103°41'0 0.0
2017-Nov-16 08:56N 01°16' E 103°41'0 0.0
2017-Nov-16 08:29N 01°16' E 103°41'0 0.0
2017-Nov-16 07:17N 01°16' E 103°41'0 0.0
2017-Nov-16 06:56N 01°16' E 103°41'0 0.0
2017-Nov-16 06:29N 01°16' E 103°41'0 0.0
2017-Nov-16 05:59N 01°16' E 103°41'0 0.0
2017-Nov-16 05:26N 01°16' E 103°41'0 0.0
2017-Nov-16 04:56N 01°16' E 103°41'0 0.0
2017-Nov-16 04:26N 01°16' E 103°41'0 0.0
2017-Nov-16 03:53N 01°16' E 103°41'0 0.0
2017-Nov-16 03:23N 01°16' E 103°41'0 0.0
2017-Nov-16 02:59N 01°16' E 103°41'0 0.0
2017-Nov-16 01:53N 01°16' E 103°41'0 0.0
2017-Nov-16 01:26N 01°16' E 103°41'0 0.0
2017-Nov-16 00:59N 01°16' E 103°41'0 0.0
2017-Nov-16 00:23N 01°16' E 103°41'0 0.0
2017-Nov-15 23:56N 01°16' E 103°41'0 0.0
2017-Nov-15 23:11N 01°16' E 103°41'0 0.0
2017-Nov-15 22:47N 01°16' E 103°41'0 0.0
2017-Nov-15 22:14N 01°16' E 103°41'0 0.0
2017-Nov-15 21:59N 01°16' E 103°41'0 0.0
2017-Nov-15 21:08N 01°16' E 103°41'0 0.0
2017-Nov-15 20:59N 01°16' E 103°41'0 0.0
2017-Nov-15 19:56N 01°16' E 103°41'0 0.0
2017-Nov-15 19:29N 01°16' E 103°41'0 0.0
2017-Nov-15 18:59N 01°16' E 103°41'0 0.0
2017-Nov-15 18:23N 01°16' E 103°41'0 0.0
2017-Nov-15 17:56N 01°16' E 103°41'0 0.0
2017-Nov-15 17:29N 01°16' E 103°41'0 0.0
2017-Nov-15 16:56N 01°16' E 103°41'0 0.0
2017-Nov-15 16:26N 01°16' E 103°41'0 0.0
2017-Nov-15 15:50N 01°16' E 103°41'0 0.0
2017-Nov-15 15:23N 01°16' E 103°41'0 0.0
2017-Nov-15 14:56N 01°16' E 103°41'0 0.0
2017-Nov-15 14:26N 01°16' E 103°41'0 0.0
2017-Nov-15 13:56N 01°16' E 103°41'0 0.0
2017-Nov-15 13:23N 01°16' E 103°41'0 0.0
2017-Nov-15 12:59N 01°16' E 103°41'0 0.0
2017-Nov-15 12:08N 01°16' E 103°41'0 0.0
2017-Nov-15 11:56N 01°16' E 103°41'0 0.0
2017-Nov-15 11:26N 01°16' E 103°41'0 0.0
2017-Nov-15 10:47N 01°16' E 103°41'0 0.0
2017-Nov-15 10:29N 01°16' E 103°41'0 0.0
2017-Nov-15 09:14N 01°16' E 103°41'0 0.0
2017-Nov-15 08:59N 01°16' E 103°41'0 0.0
2017-Nov-15 08:26N 01°16' E 103°41'0 0.0
2017-Nov-15 07:56N 01°16' E 103°41'0 0.0
2017-Nov-15 07:23N 01°16' E 103°41'0 0.0
2017-Nov-15 06:56N 01°16' E 103°41'0 0.0
2017-Nov-15 06:26N 01°16' E 103°41'0 0.0
2017-Nov-15 05:56N 01°16' E 103°41'0 0.0
2017-Nov-15 05:29N 01°16' E 103°41'0 0.0
2017-Nov-15 04:59N 01°16' E 103°41'0 0.0
2017-Nov-15 04:11N 01°16' E 103°41'0 0.0
2017-Nov-15 03:59N 01°16' E 103°41'0 0.0
2017-Nov-15 03:29N 01°16' E 103°41'0 0.0
2017-Nov-15 02:56N 01°16' E 103°41'0 0.0
2017-Nov-15 02:23N 01°16' E 103°41'0 0.0
2017-Nov-15 01:59N 01°16' E 103°41'0 0.0
2017-Nov-15 01:29N 01°16' E 103°41'0 0.0
2017-Nov-15 00:53N 01°16' E 103°41'0 0.0
2017-Nov-15 00:26N 01°16' E 103°41'0 0.0
2017-Nov-14 23:44N 01°16' E 103°41'0 0.0
2017-Nov-14 23:23N 01°16' E 103°41'0 0.0
2017-Nov-14 22:53N 01°16' E 103°41'0 0.0
2017-Nov-14 22:29N 01°16' E 103°41'0 0.0
2017-Nov-14 21:53N 01°16' E 103°41'0 0.0
2017-Nov-14 21:26N 01°16' E 103°41'0 0.0
2017-Nov-14 20:32N 01°16' E 103°41'0 0.0
2017-Nov-14 20:20N 01°16' E 103°41'0 0.0
2017-Nov-14 19:50N 01°16' E 103°41'0 0.0
2017-Nov-14 19:26N 01°16' E 103°41'0 0.0
2017-Nov-14 18:59N 01°16' E 103°41'0 0.0
2017-Nov-14 18:20N 01°16' E 103°41'0 0.0
2017-Nov-14 17:59N 01°16' E 103°41'0 0.3
2017-Nov-14 17:30N 01°16' E 103°41'1 2.8
2017-Nov-14 17:00N 01°15' E 103°42'4 8.0
2017-Nov-14 16:30N 01°16' E 103°45'5 9.2
2017-Nov-14 16:00N 01°13' E 103°49'0 0.4
2017-Nov-14 15:30N 01°13' E 103°49'0 0.0
2017-Nov-14 14:30N 01°13' E 103°49'0 0.1
2017-Nov-14 14:00N 01°13' E 103°49'0 0.0
2017-Nov-14 13:30N 01°13' E 103°49'0 0.1
2017-Nov-14 13:00N 01°13' E 103°49'0 0.0
2017-Nov-14 12:30N 01°13' E 103°49'0 0.1
2017-Nov-14 12:00N 01°13' E 103°49'0 0.1
2017-Nov-14 11:30N 01°13' E 103°49'0 0.0
2017-Nov-14 10:54N 01°13' E 103°49'0 0.1
2017-Nov-14 10:30N 01°13' E 103°49'0 0.0
2017-Nov-14 10:00N 01°13' E 103°49'0 0.1
2017-Nov-14 09:30N 01°13' E 103°49'0 0.1
2017-Nov-14 09:00N 01°13' E 103°49'0 0.1
2017-Nov-14 08:30N 01°13' E 103°49'0 0.0
2017-Nov-14 07:54N 01°13' E 103°49'0 0.0
2017-Nov-14 07:24N 01°13' E 103°49'0 0.0
2017-Nov-14 06:54N 01°13' E 103°49'0 0.0
2017-Nov-14 06:30N 01°13' E 103°49'0 0.2
2017-Nov-14 06:00N 01°13' E 103°49'0 0.0
2017-Nov-14 05:30N 01°13' E 103°49'0 0.0
2017-Nov-14 04:54N 01°13' E 103°49'0 0.1
2017-Nov-14 04:30N 01°13' E 103°49'0 0.0
2017-Nov-14 03:48N 01°13' E 103°49'0 0.0
2017-Nov-14 03:30N 01°13' E 103°49'0 0.1
2017-Nov-14 02:54N 01°13' E 103°49'0 0.3
2017-Nov-14 02:30N 01°13' E 103°49'0 0.0
2017-Nov-14 01:54N 01°13' E 103°49'0 0.2
2017-Nov-14 01:30N 01°13' E 103°49'0 0.1
2017-Nov-14 00:54N 01°13' E 103°49'0 0.3
2017-Nov-14 00:30N 01°13' E 103°49'0 0.1
2017-Nov-13 23:54N 01°13' E 103°49'0 0.0
2017-Nov-13 23:30N 01°13' E 103°49'0 0.1
2017-Nov-13 22:57N 01°13' E 103°49'0 0.2
2017-Nov-13 22:30N 01°13' E 103°49'0 0.0
2017-Nov-13 22:00N 01°13' E 103°49'0 0.0
2017-Nov-13 01:54N 01°13' E 103°49'0 1.1
2017-Nov-13 01:30N 01°13' E 103°49'11 7.3
2017-Nov-13 00:00N 01°16' E 103°59'4 7.4
2017-Nov-12 23:30N 01°16' E 104°03'6 7.2
2017-Nov-12 22:43N 01°17' E 104°09'2 9.6
2017-Nov-12 22:29N 01°17' E 104°11'1113.8
2017-Nov-12 21:44N 01°20' E 104°21'314.4
2017-Nov-12 21:29N 01°22' E 104°24'18 0.4
2017-Nov-11 02:13N 01°17' E 104°07'2 8.7
2017-Nov-11 01:59N 01°19' E 104°05'10 9.8
2017-Nov-11 01:00N 01°24' E 103°57'4 0.1
2017-Nov-09 08:46N 01°26' E 103°54'0 1.2
2017-Nov-09 08:30N 01°26' E 103°54'4 7.9
2017-Nov-09 07:59N 01°24' E 103°58'5 8.9
2017-Nov-09 07:22N 01°22' E 104°03'2 5.2
2017-Nov-09 07:00N 01°20' E 104°04'2 1.8
2017-Nov-09 05:57N 01°20' E 104°06'0 0.0
2017-Nov-08 22:39N 01°20' E 104°06'0 0.0
2017-Nov-08 22:27N 01°20' E 104°06'0 0.0
2017-Nov-08 22:00N 01°20' E 104°06'0 0.0
2017-Nov-08 14:06N 01°20' E 104°06'0 0.0
2017-Nov-08 13:54N 01°20' E 104°06'0 0.1
2017-Nov-08 12:36N 01°20' E 104°06'0 0.0
2017-Nov-08 12:25N 01°20' E 104°06'0 0.0
2017-Nov-08 11:59N 01°20' E 104°06'0 0.0
2017-Nov-08 11:30N 01°20' E 104°06'0 0.0
2017-Nov-08 11:00N 01°20' E 104°06'0 0.0
2017-Nov-08 10:30N 01°20' E 104°06'2 3.9
2017-Nov-08 10:00N 01°18' E 104°07'3 6.6
2017-Nov-08 09:30N 01°18' E 104°11'  
Track history (hours):
 
Tides and Currents Weather Stations Pressure Air Temp Water Temp Dewpoint Dewpoint Depression Visibility Wind Speed Wind Dir Waves Ship Positions

Muscat Silver

Last reported at 2017-Nov-17 00:19 UTC. Time now 2017-Nov-20 06:01 UTC.
Position N 01°14' E 104°04'.

Length 183 m; draft 12.1 m.

Type: Tanker. MMSI: 538006488.

Date/timePositionNaut miles runAvg speedWind from/ knotsBaromVisibWave heightAir tempDewpointWater temp
2017-Nov-17 00:19N 01°14' E 104°04'512.1
2017-Nov-16 23:57N 01°14' E 103°59'511.4
2017-Nov-16 23:30N 01°12' E 103°55'5 9.3
2017-Nov-16 23:00N 01°11' E 103°50'2 3.3
2017-Nov-16 22:30N 01°13' E 103°49'0 0.8
2017-Nov-16 22:00N 01°13' E 103°49'0 0.0
2017-Nov-16 21:30N 01°13' E 103°49'1 1.5
2017-Nov-16 21:00N 01°13' E 103°48'4 7.7
2017-Nov-16 20:30N 01°15' E 103°45'4 7.3
2017-Nov-16 20:00N 01°16' E 103°41'0 0.6
2017-Nov-16 19:26N 01°16' E 103°41'0 0.0
2017-Nov-16 18:56N 01°16' E 103°41'0 0.0
2017-Nov-16 16:56N 01°16' E 103°41'0 0.0
2017-Nov-16 16:05N 01°16' E 103°41'0 0.0
2017-Nov-16 15:44N 01°16' E 103°41'0 0.0
2017-Nov-16 15:23N 01°16' E 103°41'0 0.0
2017-Nov-16 14:59N 01°16' E 103°41'0 0.0
2017-Nov-16 14:26N 01°16' E 103°41'0 0.0
2017-Nov-16 13:59N 01°16' E 103°41'0 0.0
2017-Nov-16 13:29N 01°16' E 103°41'0 0.0
2017-Nov-16 12:56N 01°16' E 103°41'0 0.0
2017-Nov-16 11:44N 01°16' E 103°41'0 0.0
2017-Nov-16 10:56N 01°16' E 103°41'0 0.0
2017-Nov-16 10:26N 01°16' E 103°41'0 0.0
2017-Nov-16 09:56N 01°16' E 103°41'0 0.0
2017-Nov-16 09:20N 01°16' E 103°41'0 0.0
2017-Nov-16 08:56N 01°16' E 103°41'0 0.0
2017-Nov-16 08:29N 01°16' E 103°41'0 0.0
2017-Nov-16 07:17N 01°16' E 103°41'0 0.0
2017-Nov-16 06:56N 01°16' E 103°41'0 0.0
2017-Nov-16 06:29N 01°16' E 103°41'0 0.0
2017-Nov-16 05:59N 01°16' E 103°41'0 0.0
2017-Nov-16 05:26N 01°16' E 103°41'0 0.0
2017-Nov-16 04:56N 01°16' E 103°41'0 0.0
2017-Nov-16 04:26N 01°16' E 103°41'0 0.0
2017-Nov-16 03:53N 01°16' E 103°41'0 0.0
2017-Nov-16 03:23N 01°16' E 103°41'0 0.0
2017-Nov-16 02:59N 01°16' E 103°41'0 0.0
2017-Nov-16 01:53N 01°16' E 103°41'0 0.0
2017-Nov-16 01:26N 01°16' E 103°41'0 0.0
2017-Nov-16 00:59N 01°16' E 103°41'0 0.0
2017-Nov-16 00:23N 01°16' E 103°41'0 0.0
2017-Nov-15 23:56N 01°16' E 103°41'0 0.0
2017-Nov-15 23:11N 01°16' E 103°41'0 0.0
2017-Nov-15 22:47N 01°16' E 103°41'0 0.0
2017-Nov-15 22:14N 01°16' E 103°41'0 0.0
2017-Nov-15 21:59N 01°16' E 103°41'0 0.0
2017-Nov-15 21:08N 01°16' E 103°41'0 0.0
2017-Nov-15 20:59N 01°16' E 103°41'0 0.0
2017-Nov-15 19:56N 01°16' E 103°41'0 0.0
2017-Nov-15 19:29N 01°16' E 103°41'0 0.0
2017-Nov-15 18:59N 01°16' E 103°41'0 0.0
2017-Nov-15 18:23N 01°16' E 103°41'0 0.0
2017-Nov-15 17:56N 01°16' E 103°41'0 0.0
2017-Nov-15 17:29N 01°16' E 103°41'0 0.0
2017-Nov-15 16:56N 01°16' E 103°41'0 0.0
2017-Nov-15 16:26N 01°16' E 103°41'0 0.0
2017-Nov-15 15:50N 01°16' E 103°41'0 0.0
2017-Nov-15 15:23N 01°16' E 103°41'0 0.0
2017-Nov-15 14:56N 01°16' E 103°41'0 0.0
2017-Nov-15 14:26N 01°16' E 103°41'0 0.0
2017-Nov-15 13:56N 01°16' E 103°41'0 0.0
2017-Nov-15 13:23N 01°16' E 103°41'0 0.0
2017-Nov-15 12:59N 01°16' E 103°41'0 0.0
2017-Nov-15 12:08N 01°16' E 103°41'0 0.0
2017-Nov-15 11:56N 01°16' E 103°41'0 0.0
2017-Nov-15 11:26N 01°16' E 103°41'0 0.0
2017-Nov-15 10:47N 01°16' E 103°41'0 0.0
2017-Nov-15 10:29N 01°16' E 103°41'0 0.0
2017-Nov-15 09:14N 01°16' E 103°41'0 0.0
2017-Nov-15 08:59N 01°16' E 103°41'0 0.0
2017-Nov-15 08:26N 01°16' E 103°41'0 0.0
2017-Nov-15 07:56N 01°16' E 103°41'0 0.0
2017-Nov-15 07:23N 01°16' E 103°41'0 0.0
2017-Nov-15 06:56N 01°16' E 103°41'0 0.0
2017-Nov-15 06:26N 01°16' E 103°41'0 0.0
2017-Nov-15 05:56N 01°16' E 103°41'0 0.0
2017-Nov-15 05:29N 01°16' E 103°41'0 0.0
2017-Nov-15 04:59N 01°16' E 103°41'0 0.0
2017-Nov-15 04:11N 01°16' E 103°41'0 0.0
2017-Nov-15 03:59N 01°16' E 103°41'0 0.0
2017-Nov-15 03:29N 01°16' E 103°41'0 0.0
2017-Nov-15 02:56N 01°16' E 103°41'0 0.0
2017-Nov-15 02:23N 01°16' E 103°41'0 0.0
2017-Nov-15 01:59N 01°16' E 103°41'0 0.0
2017-Nov-15 01:29N 01°16' E 103°41'0 0.0
2017-Nov-15 00:53N 01°16' E 103°41'0 0.0
2017-Nov-15 00:26N 01°16' E 103°41'0 0.0
2017-Nov-14 23:44N 01°16' E 103°41'0 0.0
2017-Nov-14 23:23N 01°16' E 103°41'0 0.0
2017-Nov-14 22:53N 01°16' E 103°41'0 0.0
2017-Nov-14 22:29N 01°16' E 103°41'0 0.0
2017-Nov-14 21:53N 01°16' E 103°41'0 0.0
2017-Nov-14 21:26N 01°16' E 103°41'0 0.0
2017-Nov-14 20:32N 01°16' E 103°41'0 0.0
2017-Nov-14 20:20N 01°16' E 103°41'0 0.0
2017-Nov-14 19:50N 01°16' E 103°41'0 0.0
2017-Nov-14 19:26N 01°16' E 103°41'0 0.0
2017-Nov-14 18:59N 01°16' E 103°41'0 0.0
2017-Nov-14 18:20N 01°16' E 103°41'0 0.0
2017-Nov-14 17:59N 01°16' E 103°41'0 0.3
2017-Nov-14 17:30N 01°16' E 103°41'1 2.8
2017-Nov-14 17:00N 01°15' E 103°42'4 8.0
2017-Nov-14 16:30N 01°16' E 103°45'5 9.2
2017-Nov-14 16:00N 01°13' E 103°49'0 0.4
2017-Nov-14 15:30N 01°13' E 103°49'0 0.0
2017-Nov-14 14:30N 01°13' E 103°49'0 0.1
2017-Nov-14 14:00N 01°13' E 103°49'0 0.0
2017-Nov-14 13:30N 01°13' E 103°49'0 0.1
2017-Nov-14 13:00N 01°13' E 103°49'0 0.0
2017-Nov-14 12:30N 01°13' E 103°49'0 0.1
2017-Nov-14 12:00N 01°13' E 103°49'0 0.1
2017-Nov-14 11:30N 01°13' E 103°49'0 0.0
2017-Nov-14 10:54N 01°13' E 103°49'0 0.1
2017-Nov-14 10:30N 01°13' E 103°49'0 0.0
2017-Nov-14 10:00N 01°13' E 103°49'0 0.1
2017-Nov-14 09:30N 01°13' E 103°49'0 0.1
2017-Nov-14 09:00N 01°13' E 103°49'0 0.1
2017-Nov-14 08:30N 01°13' E 103°49'0 0.0
2017-Nov-14 07:54N 01°13' E 103°49'0 0.0
2017-Nov-14 07:24N 01°13' E 103°49'0 0.0
2017-Nov-14 06:54N 01°13' E 103°49'0 0.0
2017-Nov-14 06:30N 01°13' E 103°49'0 0.2
2017-Nov-14 06:00N 01°13' E 103°49'0 0.0
2017-Nov-14 05:30N 01°13' E 103°49'0 0.0
2017-Nov-14 04:54N 01°13' E 103°49'0 0.1
2017-Nov-14 04:30N 01°13' E 103°49'0 0.0
2017-Nov-14 03:48N 01°13' E 103°49'0 0.0
2017-Nov-14 03:30N 01°13' E 103°49'0 0.1
2017-Nov-14 02:54N 01°13' E 103°49'0 0.3
2017-Nov-14 02:30N 01°13' E 103°49'0 0.0
2017-Nov-14 01:54N 01°13' E 103°49'0 0.2
2017-Nov-14 01:30N 01°13' E 103°49'0 0.1
2017-Nov-14 00:54N 01°13' E 103°49'0 0.3
2017-Nov-14 00:30N 01°13' E 103°49'0 0.1
2017-Nov-13 23:54N 01°13' E 103°49'0 0.0
2017-Nov-13 23:30N 01°13' E 103°49'0 0.1
2017-Nov-13 22:57N 01°13' E 103°49'0 0.2
2017-Nov-13 22:30N 01°13' E 103°49'0 0.0
2017-Nov-13 22:00N 01°13' E 103°49'0 0.0
2017-Nov-13 01:54N 01°13' E 103°49'0 1.1
2017-Nov-13 01:30N 01°13' E 103°49'11 7.3
2017-Nov-13 00:00N 01°16' E 103°59'4 7.4
2017-Nov-12 23:30N 01°16' E 104°03'6 7.2
2017-Nov-12 22:43N 01°17' E 104°09'2 9.6
2017-Nov-12 22:29N 01°17' E 104°11'1113.8
2017-Nov-12 21:44N 01°20' E 104°21'314.4
2017-Nov-12 21:29N 01°22' E 104°24'18 0.4
2017-Nov-11 02:13N 01°17' E 104°07'2 8.7
2017-Nov-11 01:59N 01°19' E 104°05'10 9.8
2017-Nov-11 01:00N 01°24' E 103°57'4 0.1
2017-Nov-09 08:46N 01°26' E 103°54'0 1.2
2017-Nov-09 08:30N 01°26' E 103°54'4 7.9
2017-Nov-09 07:59N 01°24' E 103°58'5 8.9
2017-Nov-09 07:22N 01°22' E 104°03'2 5.2
2017-Nov-09 07:00N 01°20' E 104°04'2 1.8
2017-Nov-09 05:57N 01°20' E 104°06'0 0.0
2017-Nov-08 22:39N 01°20' E 104°06'0 0.0
2017-Nov-08 22:27N 01°20' E 104°06'0 0.0
2017-Nov-08 22:00N 01°20' E 104°06'0 0.0
2017-Nov-08 14:06N 01°20' E 104°06'0 0.0
2017-Nov-08 13:54N 01°20' E 104°06'0 0.1
2017-Nov-08 12:36N 01°20' E 104°06'0 0.0
2017-Nov-08 12:25N 01°20' E 104°06'0 0.0
2017-Nov-08 11:59N 01°20' E 104°06'0 0.0
2017-Nov-08 11:30N 01°20' E 104°06'0 0.0
2017-Nov-08 11:00N 01°20' E 104°06'0 0.0
2017-Nov-08 10:30N 01°20' E 104°06'2 3.9
2017-Nov-08 10:00N 01°18' E 104°07'3 6.6
2017-Nov-08 09:30N 01°18' E 104°11'  

Dump ship's entire track history